This is the latest recevied weather packets stored in our database for station/object HJ3GNC-12. If no packets are shown the sender has not sent any weather packets the latest 1 day(s).
| Time | Temp. | Humidity | Pressure | Rain* | Wind** | Luminosity | Snow |
|---|---|---|---|---|---|---|---|
| 1778118722 | 14.44° C | 63% | 1021 hPa | 0 mm | - | - | - |
| 1778117777 | 14.44° C | 63% | 1021 hPa | 0 mm | - | - | - |
| 1778116835 | 14.44° C | 63% | 1020 hPa | 0 mm | - | - | - |
| 1778115886 | 16.67° C | 51% | 1020 hPa | 0 mm | - | - | - |
| 1778114939 | 16.67° C | 51% | 1020 hPa | 0 mm | - | - | - |
| 1778113052 | 16.67° C | 51% | 1018 hPa | 0 mm | - | - | - |
| 1778109264 | 15° C | 85% | 1017 hPa | 0 mm | - | - | - |
| 1778107354 | 15.56° C | 85% | 1016 hPa | 0 mm | - | - | - |
| 1778102524 | 15.56° C | 85% | 1014 hPa | 0 mm | - | - | - |
| 1778095868 | 15.56° C | 87% | 1015 hPa | 0 mm | - | - | - |
| 1778094912 | 15.56° C | 89% | 1016 hPa | 0 mm | - | - | - |
| 1778091111 | 13.89° C | 92% | 1017 hPa | 0 mm | - | - | - |
| 1778089194 | 13.89° C | 92% | 1018 hPa | 0 mm | - | - | - |
| 1778086362 | 13.89° C | 92% | 1019 hPa | 0 mm | - | - | - |
| 1778081587 | 13.33° C | 93% | 1019 hPa | 0 mm | - | - | - |
| 1778080594 | 13.33° C | 93% | 1019 hPa | 0 mm | - | - | - |
| 1778074885 | 11.11° C | 98% | 1019 hPa | 0 mm | - | - | - |
| 1778066365 | 11.11° C | 98% | 1020 hPa | 0 mm | - | - | - |
| 1778064479 | 11.11° C | 98% | 1020 hPa | 0 mm | - | - | - |
| 1778061646 | 11.11° C | 98% | 1020 hPa | 0 mm | - | - | - |
| 1778059750 | 11.11° C | 98% | 1019 hPa | 0 mm | - | - | - |
| 1778058803 | 11.11° C | 98% | 1019 hPa | 0 mm | - | - | - |
| 1778057858 | 11.11° C | 98% | 1019 hPa | 0 mm | - | - | - |
| 1778055973 | 11.11° C | 97% | 1019 hPa | 0 mm | - | - | - |
| 1778054086 | 11.67° C | 97% | 1019 hPa | 0 mm | - | - | - |
* Rain latest hour (hover to see other rain measurements)
** Current wind speed in m/s (hover to see current wind gust speed)